หน้าหลัก
METAR-TAF:

METAR-TAF

ท่าอากาศยาน :

คิงส์ตัน, จาเมกา

ละติจูด: 17-56N, ลองจิจูด: 076-47W, ความสูง: 3 ม.

การสังเกตสภาพอากาศปัจจุบัน

รายงานได้ทำขึ้นเมื่อ 40 นาทีที่แล้ว ณ เวลา 15:00 UTC
ลม 6 นอตจากเหนือ
อุณหภูมิ 26°C
ความชื้น 51%
ความกดอากาศ 1016 hPa
ทัศนวิสัย 10 กม. หรือมากกว่า
มีเมฆน้อยที่ความสูง 2200 ฟุต

METAR: MKJP 221500Z 35006KT 9999 FEW022 26/15 Q1016

เวลา: 10:40 (15:40 UTC)

การพยากรณ์

รายงานได้ทำขึ้นเมื่อ 4 ชั่วโมงและ 25 นาทีที่แล้ว ณ เวลา 11:15 UTC
การพยากรณ์มีผลตั้งแต่วันที่ 22 ณ เวลา 12 UTC จนถึงวันที่ 23 ณ เวลา 12 UTC
ลม 15 นอตจากเหนือ
ทัศนวิสัย 10 กม. หรือมากกว่า
มีเมฆน้อยที่ความสูง 2200 ฟุต

TAF: MKJP 221115Z 2212/2312 35015KT 9999 FEW022

สังเกตการณ์สภาพอากาศและพยากรณ์อากาศของสนามบินมากกว่า 4000 แห่ง (รายงาน METAR และ TAF).

สถานีที่ดูได้จะแสดงไว้ด้วยจุดสีเหลืองและสีแดงบนแผนที่.

เลื่อนเมาส์ไปเหนือจุดเพื่อดูชื่อสถานี.

แล้วคลิกเพื่อดูสังเกตการณ์และการพยากรณ์สภาพอากาศ.

ในการเปลี่ยนแผนที่: คลิกที่ปุ่มสีเขียวที่มีกากบาทสีดำเพื่อซูมเข้า; ที่ปุ่มสีเขียวที่มีขีดเพื่อซูมออก; หรือที่ลูกศรสีเขียวเพื่อไปยังแผนที่ที่อยู่ติดกัน.


METAR-TAF: